Continental, Ohio
Current Conditions -  °F | °C
As of 3:53 AM on Sunday 21 Dec 2014 (Local Time) from KDFI Reporting Station
Haze Haze  
Wind Chill: 26°   Ceiling: 3000
Heat Index: 26°   Visibility: 4mi
Dew Point: 23°   Wind: 0mph
Humidity: 88%   Direction: NA
Pressure: 30.3"   Gusts: NA
Location:  41.1°N, 84.27°W
Report Text: KDFI 210853Z AUTO 00000KT 4SM BR BKN030 OVC060 M03/M05 A3030 RMK AO2 SLP269 I3000 T10331050 50003 TSNO
Loading
Personal Weather Stations






























Interactive Weather Map New forecast layout! Learn more

10-Day Weather Forecast

Advertisements
Track Severe Weather on mobile